SWA2299 KATL-KDCA
Flight info
| Callsign | SWA2299 |
|---|---|
| Flight time | 1h 11m |
| Altitude | 37000 |
| Route | JACCC2 KELLN Q56 KIWII WAVES CAPSS4 |
| Aircraft | B737/M-SDE2E3FGHIRWXY/LB1 |
Departure
| Time | 2026-05-07 02:03 |
|---|---|
| Airport | Hartsfield Jackson Atlanta International Airport (KATL) |
Arrival
| Time | 2026-05-07 03:14 |
|---|---|
| Airport | Ronald Reagan Washington National Airport (KDCA) |
| Time | Latitude | Longitude | Altitude | Speed | Heading |
|---|---|---|---|---|---|
| 2026-05-07 01:30 | 33.63983 | -84.43208 | 1005 ft | 0 kts | 275° |
| 2026-05-07 01:48 | 33.63982 | -84.43205 | 1005 ft | 2 kts | 275° |
| 2026-05-07 01:48 | 33.63980 | -84.43174 | 1005 ft | 4 kts | 268° |
| 2026-05-07 01:48 | 33.63980 | -84.43172 | 1005 ft | 0 kts | 266° |
| 2026-05-07 01:55 | 33.63978 | -84.43174 | 1005 ft | 1 kts | 235° |
| 2026-05-07 01:55 | 33.63962 | -84.43166 | 1005 ft | 5 kts | 156° |
| 2026-05-07 01:55 | 33.63909 | -84.43138 | 1005 ft | 11 kts | 157° |
| 2026-05-07 01:55 | 33.63833 | -84.43128 | 1005 ft | 10 kts | 179° |
| 2026-05-07 01:56 | 33.63782 | -84.43129 | 1005 ft | 5 kts | 181° |
| 2026-05-07 01:56 | 33.63762 | -84.43130 | 1005 ft | 2 kts | 181° |
| 2026-05-07 01:56 | 33.63748 | -84.43130 | 1005 ft | 2 kts | 181° |
| 2026-05-07 01:56 | 33.63735 | -84.43130 | 1005 ft | 1 kts | 181° |
| 2026-05-07 01:57 | 33.63726 | -84.43130 | 1005 ft | 0 kts | 181° |
| 2026-05-07 01:57 | 33.63721 | -84.43130 | 1005 ft | 2 kts | 180° |
| 2026-05-07 01:57 | 33.63704 | -84.43128 | 1009 ft | 4 kts | 167° |
| 2026-05-07 01:58 | 33.63671 | -84.43098 | 1005 ft | 8 kts | 123° |
| 2026-05-07 01:58 | 33.63663 | -84.43012 | 1005 ft | 12 kts | 89° |
| 2026-05-07 01:58 | 33.63664 | -84.42893 | 1005 ft | 16 kts | 90° |
| 2026-05-07 01:58 | 33.63659 | -84.42746 | 1005 ft | 19 kts | 97° |
| 2026-05-07 01:59 | 33.63655 | -84.42606 | 1006 ft | 16 kts | 89° |
| 2026-05-07 01:59 | 33.63655 | -84.42468 | 1006 ft | 17 kts | 90° |
| 2026-05-07 01:59 | 33.63655 | -84.42319 | 1006 ft | 18 kts | 90° |
| 2026-05-07 01:59 | 33.63643 | -84.42177 | 1006 ft | 16 kts | 114° |
| 2026-05-07 02:00 | 33.63588 | -84.42062 | 1006 ft | 16 kts | 113° |
| 2026-05-07 02:00 | 33.63581 | -84.41933 | 1005 ft | 16 kts | 90° |
| 2026-05-07 02:00 | 33.63581 | -84.41779 | 1005 ft | 21 kts | 90° |
| 2026-05-07 02:00 | 33.63580 | -84.41599 | 1005 ft | 22 kts | 90° |
| 2026-05-07 02:01 | 33.63580 | -84.41418 | 1004 ft | 21 kts | 89° |
| 2026-05-07 02:01 | 33.63581 | -84.41242 | 1005 ft | 21 kts | 90° |
| 2026-05-07 02:01 | 33.63581 | -84.41071 | 1005 ft | 20 kts | 90° |
| 2026-05-07 02:01 | 33.63580 | -84.40970 | 1005 ft | 14 kts | 90° |
| 2026-05-07 02:02 | 33.63531 | -84.40905 | 1006 ft | 12 kts | 177° |
| 2026-05-07 02:02 | 33.63470 | -84.40931 | 1006 ft | 5 kts | 263° |
| 2026-05-07 02:02 | 33.63471 | -84.40993 | 1006 ft | 17 kts | 270° |
| 2026-05-07 02:02 | 33.63471 | -84.41440 | 1005 ft | 89 kts | 270° |
| 2026-05-07 02:03 | 33.63471 | -84.42063 | 1005 ft | 130 kts | 270° |
| 2026-05-07 02:03 | 33.63470 | -84.43361 | 1009 ft | 179 kts | 270° |
| 2026-05-07 02:03 | 33.63489 | -84.44924 | 1583 ft | 187 kts | 270° |
| 2026-05-07 02:03 | 33.63497 | -84.46413 | 2561 ft | 178 kts | 262° |
| 2026-05-07 02:04 | 33.63187 | -84.47909 | 2880 ft | 197 kts | 242° |
| 2026-05-07 02:04 | 33.62553 | -84.49478 | 3167 ft | 222 kts | 240° |
| 2026-05-07 02:04 | 33.61821 | -84.51224 | 3621 ft | 240 kts | 240° |
| 2026-05-07 02:04 | 33.61072 | -84.53022 | 4453 ft | 241 kts | 242° |
| 2026-05-07 02:05 | 33.60327 | -84.54814 | 5339 ft | 242 kts | 242° |
| 2026-05-07 02:05 | 33.59498 | -84.56568 | 6188 ft | 246 kts | 231° |
| 2026-05-07 02:05 | 33.58128 | -84.57821 | 6986 ft | 251 kts | 211° |
| 2026-05-07 02:05 | 33.56436 | -84.58462 | 7736 ft | 264 kts | 191° |
| 2026-05-07 02:06 | 33.54577 | -84.58516 | 8653 ft | 267 kts | 186° |
| 2026-05-07 02:06 | 33.52713 | -84.58493 | 9591 ft | 270 kts | 186° |
| 2026-05-07 02:06 | 33.50819 | -84.58477 | 10381 ft | 275 kts | 186° |
| 2026-05-07 02:06 | 33.48882 | -84.58202 | 11165 ft | 292 kts | 168° |
| 2026-05-07 02:07 | 33.47088 | -84.56921 | 11939 ft | 313 kts | 143° |
| 2026-05-07 02:07 | 33.45348 | -84.51713 | 12612 ft | 379 kts | 93° |
| 2026-05-07 02:07 | 33.45425 | -84.48498 | 13190 ft | 391 kts | 89° |
| 2026-05-07 02:08 | 33.45557 | -84.45227 | 13960 ft | 395 kts | 89° |
| 2026-05-07 02:08 | 33.45624 | -84.41927 | 14687 ft | 398 kts | 91° |
| 2026-05-07 02:08 | 33.45627 | -84.38591 | 15406 ft | 403 kts | 92° |
| 2026-05-07 02:08 | 33.45633 | -84.35213 | 16169 ft | 409 kts | 87° |
| 2026-05-07 02:09 | 33.46273 | -84.31888 | 16841 ft | 414 kts | 64° |
| 2026-05-07 02:09 | 33.47576 | -84.28808 | 17646 ft | 415 kts | 59° |
| 2026-05-07 02:09 | 33.48965 | -84.25766 | 18393 ft | 418 kts | 58° |
| 2026-05-07 02:09 | 33.50387 | -84.22696 | 18988 ft | 424 kts | 58° |
| 2026-05-07 02:10 | 33.51820 | -84.19585 | 19553 ft | 429 kts | 58° |
| 2026-05-07 02:10 | 33.53258 | -84.16429 | 20164 ft | 434 kts | 58° |
| 2026-05-07 02:10 | 33.54700 | -84.13232 | 20774 ft | 439 kts | 58° |
| 2026-05-07 02:10 | 33.56163 | -84.09969 | 21182 ft | 449 kts | 58° |
| 2026-05-07 02:11 | 33.57650 | -84.06637 | 21751 ft | 455 kts | 58° |
| 2026-05-07 02:11 | 33.59140 | -84.03283 | 22413 ft | 457 kts | 58° |
| 2026-05-07 02:11 | 33.60640 | -83.99903 | 22995 ft | 462 kts | 58° |
| 2026-05-07 02:11 | 33.62158 | -83.96481 | 23534 ft | 467 kts | 58° |
| 2026-05-07 02:12 | 33.63692 | -83.93022 | 23980 ft | 472 kts | 58° |
| 2026-05-07 02:12 | 33.65238 | -83.89533 | 24474 ft | 474 kts | 58° |
| 2026-05-07 02:12 | 33.66868 | -83.86089 | 25015 ft | 474 kts | 52° |
| 2026-05-07 02:12 | 33.68718 | -83.82816 | 25497 ft | 475 kts | 50° |
| 2026-05-07 02:13 | 33.70661 | -83.79585 | 25950 ft | 479 kts | 49° |
| 2026-05-07 02:13 | 33.72645 | -83.76355 | 26382 ft | 482 kts | 49° |
| 2026-05-07 02:13 | 33.74620 | -83.73134 | 26815 ft | 486 kts | 49° |
| 2026-05-07 02:13 | 33.76619 | -83.69845 | 27262 ft | 489 kts | 49° |
| 2026-05-07 02:14 | 33.78618 | -83.66518 | 27693 ft | 493 kts | 50° |
| 2026-05-07 02:14 | 33.80652 | -83.63102 | 28151 ft | 497 kts | 49° |
| 2026-05-07 02:14 | 33.82445 | -83.60071 | 28513 ft | 500 kts | 49° |
| 2026-05-07 02:14 | 33.84464 | -83.56647 | 28919 ft | 504 kts | 49° |
| 2026-05-07 02:15 | 33.86494 | -83.53195 | 29304 ft | 507 kts | 49° |
| 2026-05-07 02:15 | 33.88538 | -83.49717 | 29625 ft | 512 kts | 49° |
| 2026-05-07 02:15 | 33.90605 | -83.46198 | 29955 ft | 516 kts | 49° |
| 2026-05-07 02:15 | 33.92684 | -83.42657 | 30298 ft | 518 kts | 49° |
| 2026-05-07 02:16 | 33.94768 | -83.39102 | 30639 ft | 520 kts | 49° |
| 2026-05-07 02:16 | 33.96858 | -83.35536 | 30974 ft | 522 kts | 49° |
| 2026-05-07 02:16 | 33.98957 | -83.31950 | 31275 ft | 525 kts | 49° |
| 2026-05-07 02:16 | 34.01067 | -83.28344 | 31565 ft | 528 kts | 49° |
| 2026-05-07 02:17 | 34.03184 | -83.24721 | 31942 ft | 529 kts | 49° |
| 2026-05-07 02:17 | 34.05303 | -83.21090 | 32359 ft | 528 kts | 49° |
| 2026-05-07 02:17 | 34.07418 | -83.17463 | 32731 ft | 529 kts | 49° |
| 2026-05-07 02:17 | 34.09534 | -83.13830 | 33047 ft | 530 kts | 49° |
| 2026-05-07 02:18 | 34.11659 | -83.10179 | 33325 ft | 532 kts | 48° |
| 2026-05-07 02:18 | 34.13787 | -83.06522 | 33701 ft | 532 kts | 48° |
| 2026-05-07 02:18 | 34.15914 | -83.02860 | 34092 ft | 532 kts | 48° |
| 2026-05-07 02:18 | 34.18035 | -82.99205 | 34415 ft | 532 kts | 48° |
| 2026-05-07 02:19 | 34.20155 | -82.95548 | 34693 ft | 532 kts | 48° |
| 2026-05-07 02:19 | 34.22279 | -82.91881 | 34982 ft | 533 kts | 48° |
| 2026-05-07 02:19 | 34.24401 | -82.88213 | 35266 ft | 533 kts | 48° |
| 2026-05-07 02:19 | 34.26530 | -82.84532 | 35539 ft | 533 kts | 48° |
| 2026-05-07 02:20 | 34.28658 | -82.80846 | 35839 ft | 533 kts | 48° |
| 2026-05-07 02:20 | 34.30778 | -82.77171 | 36091 ft | 534 kts | 48° |
| 2026-05-07 02:20 | 34.32610 | -82.73993 | 36371 ft | 533 kts | 47° |
| 2026-05-07 02:20 | 34.34723 | -82.70320 | 36670 ft | 532 kts | 47° |
| 2026-05-07 02:21 | 34.36834 | -82.66649 | 36909 ft | 532 kts | 47° |
| 2026-05-07 02:21 | 34.38960 | -82.62952 | 36956 ft | 537 kts | 47° |
| 2026-05-07 02:21 | 34.43227 | -82.55521 | 36953 ft | 537 kts | 47° |
| 2026-05-07 02:22 | 34.47459 | -82.48116 | 36952 ft | 531 kts | 47° |
| 2026-05-07 02:22 | 34.51657 | -82.40765 | 36997 ft | 531 kts | 47° |
| 2026-05-07 02:23 | 34.55856 | -82.33405 | 36983 ft | 531 kts | 47° |
| 2026-05-07 02:23 | 34.60058 | -82.26024 | 36979 ft | 531 kts | 47° |
| 2026-05-07 02:24 | 34.64251 | -82.18640 | 36973 ft | 531 kts | 47° |
| 2026-05-07 02:24 | 34.68413 | -82.11295 | 36998 ft | 532 kts | 47° |
| 2026-05-07 02:25 | 34.72604 | -82.03882 | 37005 ft | 532 kts | 47° |
| 2026-05-07 02:25 | 34.76802 | -81.96446 | 37017 ft | 535 kts | 47° |
| 2026-05-07 02:26 | 34.81036 | -81.88927 | 37034 ft | 536 kts | 47° |
| 2026-05-07 02:26 | 34.85254 | -81.81421 | 37012 ft | 538 kts | 47° |
| 2026-05-07 02:27 | 34.89478 | -81.73886 | 36997 ft | 539 kts | 47° |
| 2026-05-07 02:27 | 34.93706 | -81.66327 | 36981 ft | 540 kts | 47° |
| 2026-05-07 02:28 | 34.97928 | -81.58761 | 36960 ft | 540 kts | 47° |
| 2026-05-07 02:28 | 35.02151 | -81.51183 | 36951 ft | 540 kts | 47° |
| 2026-05-07 02:29 | 35.06341 | -81.43646 | 36947 ft | 540 kts | 47° |
| 2026-05-07 02:29 | 35.10577 | -81.36009 | 36943 ft | 540 kts | 47° |
| 2026-05-07 02:30 | 35.14779 | -81.28419 | 36931 ft | 539 kts | 47° |
| 2026-05-07 02:30 | 35.18939 | -81.20883 | 37057 ft | 538 kts | 47° |
| 2026-05-07 02:31 | 35.23123 | -81.13295 | 37039 ft | 538 kts | 47° |
| 2026-05-07 02:31 | 35.27297 | -81.05704 | 37020 ft | 538 kts | 47° |
| 2026-05-07 02:32 | 35.31469 | -80.98100 | 37037 ft | 537 kts | 47° |
| 2026-05-07 02:32 | 35.35630 | -80.90501 | 37007 ft | 537 kts | 47° |
| 2026-05-07 02:33 | 35.39780 | -80.82907 | 37035 ft | 536 kts | 47° |
| 2026-05-07 02:33 | 35.43927 | -80.75302 | 37038 ft | 537 kts | 47° |
| 2026-05-07 02:34 | 35.48079 | -80.67670 | 37036 ft | 537 kts | 47° |
| 2026-05-07 02:34 | 35.52224 | -80.60033 | 36996 ft | 538 kts | 47° |
| 2026-05-07 02:35 | 35.56372 | -80.52375 | 36995 ft | 539 kts | 48° |
| 2026-05-07 02:35 | 35.60517 | -80.44704 | 37003 ft | 539 kts | 48° |
| 2026-05-07 02:36 | 35.64667 | -80.37009 | 36983 ft | 539 kts | 48° |
| 2026-05-07 02:36 | 35.68807 | -80.29313 | 36984 ft | 539 kts | 48° |
| 2026-05-07 02:37 | 35.72943 | -80.21609 | 36995 ft | 540 kts | 48° |
| 2026-05-07 02:37 | 35.77074 | -80.13896 | 36975 ft | 539 kts | 48° |
| 2026-05-07 02:38 | 35.81191 | -80.06192 | 36957 ft | 538 kts | 48° |
| 2026-05-07 02:38 | 35.85300 | -79.98486 | 36982 ft | 538 kts | 48° |
| 2026-05-07 02:39 | 35.89402 | -79.90777 | 36954 ft | 537 kts | 48° |
| 2026-05-07 02:39 | 35.93499 | -79.83061 | 36952 ft | 537 kts | 48° |
| 2026-05-07 02:40 | 35.97585 | -79.75344 | 36949 ft | 537 kts | 48° |
| 2026-05-07 02:40 | 36.01663 | -79.67627 | 36941 ft | 536 kts | 48° |
| 2026-05-07 02:41 | 36.05048 | -79.61210 | 36982 ft | 536 kts | 48° |
| 2026-05-07 02:41 | 36.09119 | -79.53475 | 36948 ft | 537 kts | 48° |
| 2026-05-07 02:42 | 36.13189 | -79.45723 | 36948 ft | 537 kts | 48° |
| 2026-05-07 02:42 | 36.17262 | -79.37963 | 36939 ft | 536 kts | 47° |
| 2026-05-07 02:43 | 36.21545 | -79.30468 | 36934 ft | 531 kts | 44° |
| 2026-05-07 02:43 | 36.25929 | -79.23096 | 36956 ft | 531 kts | 44° |
| 2026-05-07 02:44 | 36.30282 | -79.15661 | 36960 ft | 534 kts | 44° |
| 2026-05-07 02:44 | 36.34606 | -79.08164 | 36967 ft | 535 kts | 44° |
| 2026-05-07 02:45 | 36.38922 | -79.00653 | 36967 ft | 534 kts | 44° |
| 2026-05-07 02:45 | 36.43233 | -78.93148 | 36963 ft | 534 kts | 44° |
| 2026-05-07 02:46 | 36.47540 | -78.85636 | 36991 ft | 534 kts | 44° |
| 2026-05-07 02:46 | 36.51828 | -78.78079 | 36949 ft | 535 kts | 45° |
| 2026-05-07 02:47 | 36.56114 | -78.70496 | 36952 ft | 538 kts | 45° |
| 2026-05-07 02:47 | 36.60847 | -78.63357 | 36956 ft | 530 kts | 32° |
| 2026-05-07 02:48 | 36.66213 | -78.57033 | 36946 ft | 531 kts | 31° |
| 2026-05-07 02:48 | 36.71622 | -78.50738 | 36953 ft | 534 kts | 31° |
| 2026-05-07 02:49 | 36.77014 | -78.44347 | 36956 ft | 535 kts | 32° |
| 2026-05-07 02:49 | 36.82377 | -78.37907 | 36944 ft | 535 kts | 32° |
| 2026-05-07 02:50 | 36.87724 | -78.31461 | 36950 ft | 534 kts | 32° |
| 2026-05-07 02:50 | 36.93070 | -78.25013 | 36941 ft | 535 kts | 32° |
| 2026-05-07 02:51 | 36.98411 | -78.18557 | 36911 ft | 527 kts | 31° |
| 2026-05-07 02:51 | 37.01000 | -78.15402 | 36890 ft | 512 kts | 31° |
| 2026-05-07 02:51 | 37.03519 | -78.12328 | 36724 ft | 501 kts | 31° |
| 2026-05-07 02:52 | 37.06004 | -78.09309 | 36280 ft | 497 kts | 31° |
| 2026-05-07 02:52 | 37.08516 | -78.06282 | 35325 ft | 506 kts | 31° |
| 2026-05-07 02:52 | 37.11087 | -78.03200 | 34326 ft | 518 kts | 32° |
| 2026-05-07 02:52 | 37.13714 | -78.00040 | 33195 ft | 529 kts | 33° |
| 2026-05-07 02:53 | 37.16378 | -77.96814 | 32227 ft | 534 kts | 35° |
| 2026-05-07 02:53 | 37.19037 | -77.93568 | 31602 ft | 531 kts | 36° |
| 2026-05-07 02:53 | 37.21656 | -77.90351 | 31172 ft | 523 kts | 37° |
| 2026-05-07 02:53 | 37.24239 | -77.87176 | 30692 ft | 517 kts | 37° |
| 2026-05-07 02:54 | 37.26801 | -77.84034 | 30127 ft | 513 kts | 38° |
| 2026-05-07 02:54 | 37.29346 | -77.80919 | 29524 ft | 510 kts | 38° |
| 2026-05-07 02:54 | 37.31872 | -77.77826 | 28954 ft | 504 kts | 38° |
| 2026-05-07 02:54 | 37.34368 | -77.74768 | 28390 ft | 499 kts | 38° |
| 2026-05-07 02:55 | 37.36839 | -77.71739 | 27805 ft | 494 kts | 38° |
| 2026-05-07 02:55 | 37.39284 | -77.68737 | 27274 ft | 489 kts | 38° |
| 2026-05-07 02:55 | 37.41704 | -77.65763 | 26765 ft | 483 kts | 38° |
| 2026-05-07 02:55 | 37.44088 | -77.62829 | 26221 ft | 475 kts | 38° |
| 2026-05-07 02:56 | 37.46434 | -77.59939 | 25552 ft | 469 kts | 38° |
| 2026-05-07 02:56 | 37.48757 | -77.57078 | 24885 ft | 464 kts | 38° |
| 2026-05-07 02:56 | 37.51048 | -77.54254 | 24287 ft | 458 kts | 38° |
| 2026-05-07 02:56 | 37.53310 | -77.51462 | 23705 ft | 452 kts | 37° |
| 2026-05-07 02:57 | 37.55556 | -77.48690 | 22837 ft | 451 kts | 38° |
| 2026-05-07 02:57 | 37.57836 | -77.46020 | 22083 ft | 440 kts | 28° |
| 2026-05-07 02:57 | 37.60420 | -77.44227 | 21649 ft | 411 kts | 11° |
| 2026-05-07 02:57 | 37.63103 | -77.43273 | 21158 ft | 395 kts | 3° |
| 2026-05-07 02:58 | 37.65769 | -77.42507 | 20693 ft | 391 kts | 2° |
| 2026-05-07 02:58 | 37.68413 | -77.41756 | 20244 ft | 390 kts | 3° |
| 2026-05-07 02:58 | 37.71058 | -77.40978 | 19800 ft | 391 kts | 4° |
| 2026-05-07 02:58 | 37.73704 | -77.40171 | 19353 ft | 391 kts | 4° |
| 2026-05-07 02:59 | 37.76339 | -77.39354 | 18895 ft | 389 kts | 4° |
| 2026-05-07 02:59 | 37.78952 | -77.38539 | 18513 ft | 384 kts | 4° |
| 2026-05-07 02:59 | 37.81540 | -77.37736 | 18074 ft | 382 kts | 4° |
| 2026-05-07 02:59 | 37.84115 | -77.36941 | 17593 ft | 379 kts | 4° |
| 2026-05-07 03:00 | 37.86671 | -77.36150 | 17136 ft | 377 kts | 5° |
| 2026-05-07 03:00 | 37.89209 | -77.35364 | 16698 ft | 375 kts | 5° |
| 2026-05-07 03:00 | 37.91739 | -77.34584 | 16262 ft | 373 kts | 5° |
| 2026-05-07 03:00 | 37.94257 | -77.33810 | 15836 ft | 372 kts | 5° |
| 2026-05-07 03:01 | 37.96767 | -77.33040 | 15426 ft | 371 kts | 6° |
| 2026-05-07 03:01 | 37.99275 | -77.32269 | 14995 ft | 371 kts | 6° |
| 2026-05-07 03:01 | 38.01783 | -77.31497 | 14564 ft | 371 kts | 6° |
| 2026-05-07 03:01 | 38.04292 | -77.30724 | 14120 ft | 372 kts | 7° |
| 2026-05-07 03:02 | 38.06805 | -77.29949 | 13695 ft | 372 kts | 7° |
| 2026-05-07 03:02 | 38.09321 | -77.29165 | 13204 ft | 371 kts | 8° |
| 2026-05-07 03:02 | 38.11818 | -77.28378 | 12761 ft | 369 kts | 8° |
| 2026-05-07 03:02 | 38.14302 | -77.27595 | 12331 ft | 366 kts | 8° |
| 2026-05-07 03:03 | 38.16112 | -77.27025 | 12014 ft | 362 kts | 8° |
| 2026-05-07 03:03 | 38.17724 | -77.26517 | 11738 ft | 359 kts | 8° |
| 2026-05-07 03:03 | 38.20298 | -77.25706 | 11320 ft | 354 kts | 7° |
| 2026-05-07 03:03 | 38.22679 | -77.24953 | 10910 ft | 350 kts | 7° |
| 2026-05-07 03:04 | 38.25030 | -77.24205 | 10499 ft | 346 kts | 8° |
| 2026-05-07 03:04 | 38.27355 | -77.23466 | 10109 ft | 343 kts | 8° |
| 2026-05-07 03:04 | 38.29651 | -77.22735 | 9897 ft | 333 kts | 7° |
| 2026-05-07 03:04 | 38.31836 | -77.22032 | 9893 ft | 316 kts | 7° |
| 2026-05-07 03:05 | 38.33895 | -77.21127 | 9721 ft | 316 kts | 26° |
| 2026-05-07 03:05 | 38.35639 | -77.19410 | 9434 ft | 316 kts | 37° |
| 2026-05-07 03:05 | 38.37280 | -77.17545 | 9067 ft | 316 kts | 38° |
| 2026-05-07 03:05 | 38.38900 | -77.15670 | 8728 ft | 314 kts | 38° |
| 2026-05-07 03:06 | 38.40513 | -77.13812 | 8424 ft | 310 kts | 38° |
| 2026-05-07 03:06 | 38.41631 | -77.12532 | 8278 ft | 307 kts | 38° |
| 2026-05-07 03:06 | 38.43203 | -77.10743 | 7922 ft | 306 kts | 38° |
| 2026-05-07 03:06 | 38.44804 | -77.08927 | 7623 ft | 303 kts | 38° |
| 2026-05-07 03:07 | 38.46375 | -77.07150 | 7292 ft | 301 kts | 38° |
| 2026-05-07 03:07 | 38.47929 | -77.05392 | 7058 ft | 296 kts | 38° |
| 2026-05-07 03:07 | 38.49457 | -77.03663 | 6775 ft | 293 kts | 38° |
| 2026-05-07 03:07 | 38.51010 | -77.01990 | 6449 ft | 289 kts | 28° |
| 2026-05-07 03:08 | 38.52804 | -77.01102 | 6153 ft | 276 kts | 3° |
| 2026-05-07 03:08 | 38.54688 | -77.01055 | 5831 ft | 268 kts | 351° |
| 2026-05-07 03:08 | 38.56522 | -77.01193 | 5500 ft | 267 kts | 351° |
| 2026-05-07 03:08 | 38.58374 | -77.01347 | 5168 ft | 265 kts | 351° |
| 2026-05-07 03:09 | 38.60195 | -77.01489 | 4814 ft | 261 kts | 351° |
| 2026-05-07 03:09 | 38.61980 | -77.01625 | 4598 ft | 251 kts | 352° |
| 2026-05-07 03:09 | 38.63691 | -77.01748 | 4307 ft | 246 kts | 353° |
| 2026-05-07 03:09 | 38.64166 | -77.01782 | 4254 ft | 243 kts | 353° |
| 2026-05-07 03:10 | 38.65836 | -77.01899 | 4144 ft | 231 kts | 353° |
| 2026-05-07 03:10 | 38.67397 | -77.02005 | 3937 ft | 219 kts | 353° |
| 2026-05-07 03:10 | 38.68933 | -77.02136 | 3377 ft | 221 kts | 352° |
| 2026-05-07 03:10 | 38.70441 | -77.02287 | 3001 ft | 214 kts | 353° |
| 2026-05-07 03:11 | 38.71912 | -77.02433 | 2490 ft | 207 kts | 354° |
| 2026-05-07 03:11 | 38.73294 | -77.02574 | 2147 ft | 191 kts | 355° |
| 2026-05-07 03:11 | 38.74554 | -77.02703 | 1892 ft | 173 kts | 356° |
| 2026-05-07 03:11 | 38.75719 | -77.02820 | 1674 ft | 163 kts | 355° |
| 2026-05-07 03:12 | 38.76809 | -77.02931 | 1472 ft | 144 kts | 355° |
| 2026-05-07 03:12 | 38.77755 | -77.03027 | 1272 ft | 132 kts | 356° |
| 2026-05-07 03:12 | 38.78631 | -77.03115 | 1123 ft | 124 kts | 355° |
| 2026-05-07 03:12 | 38.79523 | -77.03196 | 989 ft | 130 kts | 356° |
| 2026-05-07 03:13 | 38.80421 | -77.03313 | 846 ft | 126 kts | 355° |
| 2026-05-07 03:13 | 38.81290 | -77.03384 | 643 ft | 123 kts | 356° |
| 2026-05-07 03:13 | 38.82144 | -77.03473 | 441 ft | 128 kts | 354° |
| 2026-05-07 03:13 | 38.83063 | -77.03568 | 299 ft | 132 kts | 355° |
| 2026-05-07 03:14 | 38.83964 | -77.03655 | 99 ft | 127 kts | 352° |
| 2026-05-07 03:14 | 38.84789 | -77.03740 | 25 ft | 101 kts | 356° |
| 2026-05-07 03:14 | 38.85468 | -77.03820 | 25 ft | 18 kts | 339° |
| 2026-05-07 03:15 | 38.85510 | -77.03920 | 26 ft | 11 kts | 244° |
| 2026-05-07 03:15 | 38.85448 | -77.03946 | 23 ft | 10 kts | 174° |
| 2026-05-07 03:15 | 38.85373 | -77.03938 | 24 ft | 11 kts | 176° |
| 2026-05-07 03:15 | 38.85327 | -77.03989 | 23 ft | 8 kts | 212° |
| 2026-05-07 03:16 | 38.85274 | -77.03990 | 24 ft | 8 kts | 173° |
| 2026-05-07 03:16 | 38.85212 | -77.03983 | 24 ft | 10 kts | 175° |
| 2026-05-07 03:16 | 38.85139 | -77.03975 | 24 ft | 11 kts | 175° |
| 2026-05-07 03:16 | 38.85061 | -77.03968 | 24 ft | 12 kts | 176° |
| 2026-05-07 03:17 | 38.84979 | -77.03959 | 25 ft | 12 kts | 175° |
| 2026-05-07 03:17 | 38.84897 | -77.03951 | 24 ft | 12 kts | 175° |
| 2026-05-07 03:17 | 38.84818 | -77.03943 | 25 ft | 11 kts | 177° |
| 2026-05-07 03:17 | 38.84745 | -77.03969 | 24 ft | 11 kts | 207° |
| 2026-05-07 03:18 | 38.84678 | -77.04010 | 24 ft | 10 kts | 206° |
| 2026-05-07 03:18 | 38.84615 | -77.04054 | 25 ft | 10 kts | 217° |
| 2026-05-07 03:18 | 38.84618 | -77.04100 | 23 ft | 5 kts | 332° |
| 2026-05-07 03:18 | 38.84650 | -77.04118 | 26 ft | 5 kts | 336° |
| 2026-05-07 03:19 | 38.84682 | -77.04137 | 26 ft | 5 kts | 335° |
| 2026-05-07 03:19 | 38.84714 | -77.04155 | 23 ft | 5 kts | 335° |
| 2026-05-07 03:19 | 38.84744 | -77.04174 | 23 ft | 5 kts | 334° |
| 2026-05-07 03:19 | 38.84751 | -77.04179 | 23 ft | 0 kts | 334° |
| 2026-05-07 03:21 | 38.84753 | -77.04188 | 23 ft | 2 kts | 274° |
| 2026-05-07 03:21 | 38.84744 | -77.04204 | 24 ft | 2 kts | 229° |
| 2026-05-07 03:21 | 38.84732 | -77.04219 | 23 ft | 3 kts | 225° |
| 2026-05-07 03:21 | 38.84729 | -77.04223 | 23 ft | 0 kts | 225° |